Ana Sayfa
METAR-TAF:

METAR-TAF

Havaalanları :

Beaumont, Teksas, Amerika Birleşik Devletleri

Enlem: 30-04-13N, Boylam: 094-12-54W, yükseklik: 10 m

Güncel hava durumu gözlemi

Rapor saat 20:15 UTC de 27 dakika önce yapıldı.
Rüzgar güney/güneybatıdan 4 kt
Sıcaklık 20°C
Nem 94%
Basınç 1008 hPa
Görüş mesafesi: 16.1 km
7000 ft yükseklikte çok bulutlu

METAR: KBMT 242015Z AUTO 20004KT 10SM OVC070 20/19 A2976 RMK AO2 T01960186

Saat: 13:42 (20:42 UTC)


TAF: eksik

4.000'den fazla havaalanı için hava durumu gözlemleri ve tahminleri (METAR ve TAF raporları).

Kullanılabilir istasyonlar harita üzerinde sarı ve kırmızı noktalarla gösterilir.

İstasyonun adını görmek için fareyi noktanın üzerinde gezdirin.

Sonrasında hava gözlem ve tahminlerini görmek için tıklayın.

Haritayı değiştirmek için: yaklaştırmak için siyah artı işaretli yeşil düğmeye ve uzaklaştırmak için de eksi işaretli düğmeye hızla tıklayın; bitişik haritalar için yeşil okları kullanın.


METAR-TAF: